Time;durP1;ratioP1;P1;durP2;ratioP2;P2;SDS_P1;SDS_P2;PMS_P1;PMS_P2;Temp;Humidity;BMP_temperature;BMP_pressure;BME280_temperature;BME280_humidity;BME280_pressure;Samples;Min_cycle;Max_cycle;Signal;HPM_P1;HPM_P2
2022/10/09 00:00:04;;;;;;;3.88;3.58;;;11.50;99.90;;;;;;4929936;29;20036;-85
2022/10/09 00:02:37;;;;;;;5.97;5.18;;;11.50;99.90;;;;;;4929852;29;20040;-85
2022/10/09 00:05:04;;;;;;;9.27;4.18;;;11.50;99.90;;;;;;4929816;29;20044;-85
2022/10/09 00:07:30;;;;;;;4.38;3.97;;;11.50;99.90;;;;;;4911680;29;20049;-85
2022/10/09 00:09:56;;;;;;;10.25;5.18;;;;;;;;;;4910867;29;20057;-85
2022/10/09 00:12:21;;;;;;;5.88;4.22;;;11.40;99.90;;;;;;4910995;29;20063;-85
2022/10/09 00:14:48;;;;;;;9.00;3.90;;;11.40;99.90;;;;;;4909642;29;20497;-85
2022/10/09 00:17:14;;;;;;;10.23;6.05;;;11.40;99.90;;;;;;4910720;29;20056;-85
2022/10/09 00:19:40;;;;;;;15.85;8.43;;;11.40;99.90;;;;;;4910819;29;20096;-85
2022/10/09 00:22:05;;;;;;;20.63;8.63;;;11.30;99.90;;;;;;4914320;29;20032;-85
2022/10/09 00:24:31;;;;;;;12.13;8.70;;;11.30;99.90;;;;;;4928525;29;20034;-85
2022/10/09 00:26:57;;;;;;;10.20;8.27;;;;;;;;;;4929488;29;20036;-85
2022/10/09 00:29:23;;;;;;;27.52;11.13;;;11.30;99.90;;;;;;4928268;29;20115;-85
2022/10/09 00:31:49;;;;;;;19.90;10.30;;;11.30;99.90;;;;;;4928298;29;20043;-85
2022/10/09 00:34:15;;;;;;;17.42;10.38;;;11.60;99.90;;;;;;4929547;29;20060;-85
2022/10/09 00:36:41;;;;;;;21.38;9.38;;;11.20;99.90;;;;;;4924709;29;20057;-85
2022/10/09 00:39:07;;;;;;;14.77;9.07;;;;;;;;;;4910720;29;20088;-85
2022/10/09 00:41:33;;;;;;;15.38;8.02;;;11.30;99.90;;;;;;4910391;29;20044;-85
2022/10/09 00:44:23;;;;;;;12.15;6.70;;;11.20;99.90;;;;;;4924987;29;20033;-85
2022/10/09 00:46:51;;;;;;;15.60;6.22;;;11.20;99.90;;;;;;4912681;29;20072;-84
2022/10/09 00:49:24;;;;;;;6.50;4.65;;;11.20;99.90;;;;;;4914567;29;20475;-85
2022/10/09 00:51:52;;;;;;;10.63;3.97;;;11.10;99.90;;;;;;4920704;29;20032;-85
2022/10/09 00:54:23;;;;;;;7.10;4.53;;;11.10;99.90;;;;;;4933353;29;20028;-85
2022/10/09 00:56:49;;;;;;;11.38;4.43;;;11.30;99.90;;;;;;4933164;29;20060;-85
2022/10/09 00:59:16;;;;;;;8.48;3.97;;;11.10;99.90;;;;;;4933263;29;20064;-85
2022/10/09 01:01:42;;;;;;;6.13;4.15;;;11.10;99.90;;;;;;4933084;29;20032;-85
2022/10/09 01:04:08;;;;;;;4.28;3.55;;;11.10;99.90;;;;;;4932877;29;20043;-85
2022/10/09 01:07:11;;;;;;;4.03;3.63;;;11.00;99.90;;;;;;4926537;29;20546;-85
2022/10/09 01:09:52;;;;;;;3.53;3.20;;;11.00;99.90;;;;;;4914076;29;20036;-85
2022/10/09 01:12:29;;;;;;;5.85;2.90;;;11.00;99.90;;;;;;4914056;29;20470;-85
2022/10/09 01:14:54;;;;;;;4.28;3.13;;;11.00;99.90;;;;;;4914082;29;20029;-85
2022/10/09 01:17:34;;;;;;;4.45;3.60;;;10.90;99.90;;;;;;4914015;29;20514;-85
2022/10/09 01:20:29;;;;;;;9.18;3.92;;;10.90;99.90;;;;;;4913834;29;20028;-85
2022/10/09 01:22:58;;;;;;;4.63;3.30;;;10.90;99.90;;;;;;4913546;29;20099;-85
2022/10/09 01:25:54;;;;;;;5.30;3.45;;;10.90;99.90;;;;;;4913804;29;20036;-85
2022/10/09 01:28:22;;;;;;;5.40;4.05;;;10.90;99.90;;;;;;4913838;29;20061;-85
2022/10/09 01:30:48;;;;;;;3.35;3.05;;;10.90;99.90;;;;;;4912568;29;20150;-85
2022/10/09 01:33:15;;;;;;;2.22;2.13;;;10.80;99.90;;;;;;4913613;29;20024;-85
2022/10/09 01:35:43;;;;;;;7.85;3.53;;;10.80;99.90;;;;;;4914647;29;20043;-85
2022/10/09 01:38:10;;;;;;;4.07;3.50;;;10.80;99.90;;;;;;4928076;29;20069;-85
2022/10/09 01:40:37;;;;;;;9.93;5.40;;;10.80;99.90;;;;;;4912362;29;20040;-85
2022/10/09 01:43:03;;;;;;;9.43;5.85;;;10.70;99.90;;;;;;4913395;29;20032;-85
2022/10/09 01:45:40;;;;;;;8.73;6.97;;;10.70;99.90;;;;;;4913439;29;20061;-85
2022/10/09 01:48:10;;;;;;;11.60;7.50;;;10.70;99.90;;;;;;4913447;29;20037;-85
2022/10/09 01:50:41;;;;;;;13.85;7.35;;;10.70;99.90;;;;;;4927558;29;20024;-85
2022/10/09 01:53:11;;;;;;;15.00;9.18;;;10.70;99.90;;;;;;4932213;29;20032;-85
2022/10/09 01:55:49;;;;;;;9.02;6.57;;;10.70;99.90;;;;;;4932113;29;20497;-85
2022/10/09 01:58:47;;;;;;;9.73;6.57;;;10.70;99.90;;;;;;4931063;29;20071;-85
2022/10/09 02:01:23;;;;;;;8.85;3.78;;;10.60;99.90;;;;;;4932140;29;20040;-84
2022/10/09 02:03:52;;;;;;;3.90;3.55;;;10.60;99.90;;;;;;4930199;29;20044;-85
2022/10/09 02:06:18;;;;;;;5.05;3.75;;;10.60;99.90;;;;;;4931872;29;20044;-84
2022/10/09 02:08:48;;;;;;;3.85;3.50;;;10.60;99.90;;;;;;4932182;29;20036;-85
2022/10/09 02:11:14;;;;;;;7.53;2.33;;;;;;;;;;4931944;29;20036;-85
2022/10/09 02:13:41;;;;;;;2.92;2.63;;;10.50;99.90;;;;;;4930602;29;20127;-85
2022/10/09 02:16:23;;;;;;;4.72;3.28;;;10.50;99.90;;;;;;4915112;29;20020;-85
2022/10/09 02:19:10;;;;;;;2.88;2.63;;;10.50;99.90;;;;;;4913569;29;20028;-85
2022/10/09 02:21:58;;;;;;;2.78;2.45;;;10.40;99.90;;;;;;4912857;29;20041;-85
2022/10/09 02:24:25;;;;;;;3.35;3.05;;;10.40;99.90;;;;;;4912810;29;20036;-85
2022/10/09 02:26:53;;;;;;;3.22;2.65;;;10.50;99.90;;;;;;4912661;29;20041;-85
2022/10/09 02:29:19;;;;;;;4.03;2.15;;;10.40;99.90;;;;;;4912657;29;20390;-85
2022/10/09 02:31:45;;;;;;;2.67;2.47;;;10.40;99.90;;;;;;4916642;29;20042;-85
2022/10/09 02:34:19;;;;;;;2.28;2.08;;;10.40;99.90;;;;;;4931493;29;20024;-85
2022/10/09 02:36:45;;;;;;;3.00;2.00;;;10.40;99.90;;;;;;4931355;29;20517;-85
2022/10/09 02:39:11;;;;;;;4.00;3.05;;;10.30;99.90;;;;;;4931542;29;20040;-85
2022/10/09 02:41:37;;;;;;;3.63;2.08;;;;;;;;;;4931261;29;20043;-85
2022/10/09 02:44:04;;;;;;;6.35;2.63;;;10.30;99.90;;;;;;4931295;29;20023;-85
2022/10/09 02:46:31;;;;;;;4.30;2.33;;;10.30;99.90;;;;;;4926979;29;20033;-85
2022/10/09 02:48:57;;;;;;;2.30;2.15;;;10.30;99.90;;;;;;4912375;29;20032;-85
2022/10/09 02:51:23;;;;;;;2.35;2.15;;;10.20;99.90;;;;;;4911022;29;20039;-85
2022/10/09 02:53:55;;;;;;;2.72;2.53;;;10.10;99.90;;;;;;4912353;29;20036;-85
2022/10/09 02:56:22;;;;;;;4.60;2.95;;;10.20;99.90;;;;;;4912210;29;20028;-85
2022/10/09 02:58:48;;;;;;;2.35;2.25;;;10.20;99.90;;;;;;4912040;29;20024;-85
2022/10/09 03:01:14;;;;;;;7.88;2.03;;;;;;;;;;4911170;29;20043;-85
2022/10/09 03:03:40;;;;;;;2.63;2.42;;;10.10;99.90;;;;;;4934072;29;20053;-84
2022/10/09 03:06:09;;;;;;;2.97;2.78;;;10.10;99.90;;;;;;4912009;29;20100;-84
2022/10/09 03:08:36;;;;;;;2.17;2.08;;;10.10;99.90;;;;;;4911864;29;20198;-84
2022/10/09 03:11:02;;;;;;;2.50;2.33;;;10.10;99.90;;;;;;4911971;29;20037;-84
2022/10/09 03:13:28;;;;;;;2.38;2.10;;;;;;;;;;4911810;29;20051;-85
2022/10/09 03:15:54;;;;;;;2.78;2.58;;;9.80;99.90;;;;;;4911923;29;20080;-84
2022/10/09 03:18:20;;;;;;;3.15;2.65;;;10.00;99.90;;;;;;4921821;29;20028;-85
2022/10/09 03:20:45;;;;;;;5.38;3.15;;;10.00;99.90;;;;;;4913532;29;20039;-84
2022/10/09 03:23:12;;;;;;;4.47;2.60;;;;;;;;;;4929616;29;20024;-85
2022/10/09 03:25:40;;;;;;;1.70;1.60;;;10.00;99.90;;;;;;4929318;29;20040;-84
2022/10/09 03:28:06;;;;;;;3.20;2.92;;;9.90;99.90;;;;;;4930343;29;20032;-84
2022/10/09 03:30:32;;;;;;;2.75;2.50;;;;;;;;;;4930698;29;20028;-84
2022/10/09 03:32:58;;;;;;;4.13;2.08;;;9.90;99.90;;;;;;4920646;29;20032;-84
2022/10/09 03:35:24;;;;;;;3.75;2.92;;;9.90;99.90;;;;;;4894661;29;20061;-84
2022/10/09 03:37:50;;;;;;;4.32;2.10;;;9.80;99.90;;;;;;4910234;29;20032;-85
2022/10/09 03:40:16;;;;;;;4.03;2.15;;;9.80;99.90;;;;;;4910358;29;20398;-85
2022/10/09 03:42:42;;;;;;;3.45;2.55;;;;;;;;;;4911337;29;20028;-84
2022/10/09 03:45:08;;;;;;;2.55;2.35;;;9.80;99.90;;;;;;4911332;29;20039;-85
2022/10/09 03:47:34;;;;;;;2.17;1.95;;;9.80;99.90;;;;;;4919233;29;20033;-85
2022/10/09 03:50:00;;;;;;;2.17;2.08;;;;;;;;;;4929962;29;20032;-85
2022/10/09 03:52:26;;;;;;;3.55;3.15;;;9.80;99.90;;;;;;4930302;29;20031;-85
2022/10/09 03:54:51;;;;;;;3.95;2.22;;;9.80;99.90;;;;;;4930115;29;20028;-85
2022/10/09 03:57:18;;;;;;;2.78;2.58;;;;;;;;;;4930010;29;20123;-85
2022/10/09 03:59:43;;;;;;;5.10;4.10;;;9.70;99.90;;;;;;4930182;29;20405;-84
2022/10/09 04:02:09;;;;;;;2.72;2.45;;;9.70;99.90;;;;;;4922709;29;20036;-84
2022/10/09 04:04:36;;;;;;;3.67;2.20;;;;;;;;;;4909604;29;20048;-85
2022/10/09 04:07:01;;;;;;;2.55;2.33;;;9.60;99.90;;;;;;4909906;29;20044;-85
2022/10/09 04:09:28;;;;;;;3.33;3.08;;;;;;;;;;4910922;29;20025;-84
2022/10/09 04:11:53;;;;;;;2.90;2.60;;;9.60;99.90;;;;;;4910970;29;20036;-85
2022/10/09 04:14:20;;;;;;;2.20;2.00;;;9.60;99.90;;;;;;4910920;29;20470;-85
2022/10/09 04:16:45;;;;;;;4.28;2.17;;;10.10;99.90;;;;;;4915231;29;20385;-85
2022/10/09 04:19:11;;;;;;;3.78;3.47;;;9.60;99.90;;;;;;4928039;29;20036;-85
2022/10/09 04:21:37;;;;;;;2.53;2.33;;;;;;;;;;4929408;29;20040;-84
2022/10/09 04:24:07;;;;;;;4.03;2.72;;;9.50;99.90;;;;;;4929734;29;20043;-84
2022/10/09 04:26:33;;;;;;;2.13;2.03;;;9.50;99.90;;;;;;4929800;29;20040;-84
2022/10/09 04:28:59;;;;;;;2.47;2.35;;;9.50;99.90;;;;;;4929684;29;20051;-85
2022/10/09 04:31:25;;;;;;;3.78;2.72;;;9.50;99.90;;;;;;4927332;29;20040;-84
2022/10/09 04:33:54;;;;;;;1.95;1.85;;;9.50;99.90;;;;;;4925053;29;20036;-84
2022/10/09 04:36:20;;;;;;;3.42;2.95;;;9.50;99.90;;;;;;4926077;29;20059;-84
2022/10/09 04:38:46;;;;;;;2.50;2.25;;;;;;;;;;4917784;29;20033;-84
2022/10/09 04:41:12;;;;;;;1.60;1.50;;;9.40;99.90;;;;;;4910584;29;20029;-84
2022/10/09 04:43:38;;;;;;;2.80;2.03;;;9.30;99.90;;;;;;4909420;29;20040;-84
2022/10/09 04:46:11;;;;;;;2.88;2.75;;;9.40;99.90;;;;;;4910555;29;20117;-84
2022/10/09 04:48:38;;;;;;;2.47;2.35;;;9.40;99.90;;;;;;4909237;29;20024;-84
2022/10/09 04:51:05;;;;;;;2.65;2.38;;;9.40;99.90;;;;;;4910886;29;20033;-84
2022/10/09 04:53:32;;;;;;;2.50;2.30;;;9.30;99.90;;;;;;4910007;29;20088;-84
2022/10/09 04:56:01;;;;;;;2.13;1.92;;;9.40;99.90;;;;;;4927422;29;20082;-83
2022/10/09 04:58:39;;;;;;;2.15;2.05;;;9.40;99.90;;;;;;4928275;29;20024;-83
2022/10/09 05:01:17;;;;;;;4.95;2.30;;;9.30;99.90;;;;;;4916231;29;20047;-85
2022/10/09 05:03:43;;;;;;;1.75;1.65;;;9.30;99.90;;;;;;4898864;29;20077;-85
2022/10/09 05:06:11;;;;;;;3.13;2.08;;;9.30;99.90;;;;;;4927649;29;20044;-86
2022/10/09 05:08:37;;;;;;;3.22;2.42;;;9.30;99.90;;;;;;4927901;29;20055;-85
2022/10/09 05:11:06;;;;;;;3.42;2.55;;;9.60;99.90;;;;;;4908260;29;20028;-85
2022/10/09 05:13:36;;;;;;;2.60;2.40;;;9.30;99.90;;;;;;4920710;29;20027;-85
2022/10/09 05:16:03;;;;;;;4.47;2.80;;;9.30;99.90;;;;;;4893911;29;20043;-85
2022/10/09 05:18:30;;;;;;;2.75;2.55;;;9.30;99.90;;;;;;4925213;29;20044;-85
2022/10/09 05:20:56;;;;;;;2.30;2.10;;;9.20;99.90;;;;;;4926476;29;20024;-86
2022/10/09 05:23:22;;;;;;;3.72;2.42;;;9.20;99.90;;;;;;4925124;29;20032;-85
2022/10/09 05:25:59;;;;;;;2.17;2.00;;;9.20;99.90;;;;;;4926922;29;20088;-85
2022/10/09 05:28:27;;;;;;;3.15;2.75;;;9.20;99.90;;;;;;4935982;29;20039;-85
2022/10/09 05:30:53;;;;;;;2.72;2.28;;;9.20;99.90;;;;;;4912081;29;20032;-85
2022/10/09 05:33:19;;;;;;;3.80;2.92;;;9.20;99.90;;;;;;4932462;29;20121;-86
2022/10/09 05:35:53;;;;;;;5.45;3.40;;;9.20;99.90;;;;;;4916671;29;20044;-85
2022/10/09 05:38:20;;;;;;;1.77;1.67;;;9.10;99.90;;;;;;4898648;29;20072;-86
2022/10/09 05:40:54;;;;;;;11.55;4.63;;;9.10;99.90;;;;;;4926663;29;20458;-85
2022/10/09 05:43:22;;;;;;;2.55;2.35;;;9.10;99.90;;;;;;4927970;29;20079;-85
2022/10/09 05:45:48;;;;;;;2.45;2.33;;;9.10;99.90;;;;;;4911999;29;20127;-85
2022/10/09 05:48:14;;;;;;;4.55;3.30;;;9.10;99.90;;;;;;4913083;29;20084;-86
2022/10/09 05:50:40;;;;;;;2.90;2.70;;;9.10;99.90;;;;;;4928674;29;20107;-86
2022/10/09 05:53:06;;;;;;;3.58;2.05;;;9.10;99.90;;;;;;4915468;29;20055;-84
2022/10/09 05:55:32;;;;;;;2.65;2.45;;;9.10;99.90;;;;;;4930936;29;20056;-85
2022/10/09 05:57:57;;;;;;;7.97;4.00;;;9.00;99.90;;;;;;4932219;29;20032;-85
2022/10/09 06:00:23;;;;;;;4.35;3.40;;;9.10;99.90;;;;;;4929399;29;20051;-85
2022/10/09 06:02:49;;;;;;;3.70;3.40;;;9.10;99.90;;;;;;4946576;29;20020;-84
2022/10/09 06:05:15;;;;;;;3.58;2.72;;;9.10;99.90;;;;;;4946517;29;20052;-85
2022/10/09 06:07:40;;;;;;;3.40;3.17;;;9.00;99.90;;;;;;4931435;29;20082;-84
2022/10/09 06:10:06;;;;;;;9.18;4.22;;;9.00;99.90;;;;;;4946576;29;20079;-85
2022/10/09 06:12:32;;;;;;;5.47;3.40;;;9.00;99.90;;;;;;4930979;29;20044;-85
2022/10/09 06:14:58;;;;;;;3.92;3.08;;;9.00;99.90;;;;;;4914794;29;20039;-85
2022/10/09 06:17:24;;;;;;;2.95;2.75;;;9.00;99.90;;;;;;4946665;29;20029;-85
2022/10/09 06:19:49;;;;;;;5.65;3.25;;;9.10;99.90;;;;;;4930596;29;20040;-85
2022/10/09 06:22:15;;;;;;;8.57;2.92;;;9.10;99.90;;;;;;4931771;29;20478;-85
2022/10/09 06:24:41;;;;;;;3.72;3.17;;;9.00;99.90;;;;;;4931030;29;20035;-84
2022/10/09 06:27:07;;;;;;;3.95;3.65;;;9.10;99.90;;;;;;4931602;29;20505;-85
2022/10/09 06:29:33;;;;;;;3.13;2.72;;;9.00;99.90;;;;;;4914650;29;20028;-84
2022/10/09 06:31:59;;;;;;;4.22;3.92;;;9.00;99.90;;;;;;4931770;29;20039;-84
2022/10/09 06:34:24;;;;;;;3.08;2.78;;;9.90;99.90;;;;;;4933755;29;20036;-85
2022/10/09 06:36:50;;;;;;;2.10;2.00;;;9.00;99.90;;;;;;4946493;29;20163;-84
2022/10/09 06:39:16;;;;;;;2.85;2.65;;;9.00;99.90;;;;;;4929485;29;20028;-84
2022/10/09 06:41:42;;;;;;;3.03;2.83;;;9.00;99.90;;;;;;4912306;29;20060;-84
2022/10/09 06:44:23;;;;;;;3.03;2.83;;;9.00;99.90;;;;;;4910713;29;20096;-85
2022/10/09 06:46:49;;;;;;;4.55;2.97;;;9.00;99.90;;;;;;4911254;29;20036;-84
2022/10/09 06:49:15;;;;;;;3.65;3.25;;;9.00;99.90;;;;;;4928338;29;20039;-85
2022/10/09 06:51:40;;;;;;;4.15;3.72;;;9.10;99.90;;;;;;4925189;29;20028;-84
2022/10/09 06:54:12;;;;;;;3.90;3.28;;;9.10;99.90;;;;;;4917117;29;20043;-85
2022/10/09 06:56:37;;;;;;;5.30;3.42;;;9.10;99.90;;;;;;4929843;29;20115;-85
2022/10/09 06:59:06;;;;;;;3.85;3.55;;;9.10;99.90;;;;;;4929769;29;20394;-84
2022/10/09 07:01:33;;;;;;;5.68;2.72;;;9.10;99.90;;;;;;4910906;29;20037;-85
2022/10/09 07:04:05;;;;;;;2.92;2.72;;;9.10;99.90;;;;;;4926509;29;20048;-86
2022/10/09 07:06:35;;;;;;;4.10;2.92;;;9.20;99.90;;;;;;4910762;29;20131;-85
2022/10/09 07:09:04;;;;;;;4.57;3.25;;;9.20;99.90;;;;;;4926802;29;20475;-85
2022/10/09 07:11:32;;;;;;;4.68;3.20;;;9.20;99.90;;;;;;4911988;29;20060;-84
2022/10/09 07:13:59;;;;;;;7.78;3.13;;;9.20;99.90;;;;;;4920794;29;20115;-85
2022/10/09 07:16:28;;;;;;;3.42;3.13;;;9.30;99.90;;;;;;4910772;29;20036;-85
2022/10/09 07:18:54;;;;;;;3.75;3.42;;;9.30;99.90;;;;;;4895015;29;20044;-85
2022/10/09 07:21:20;;;;;;;5.05;4.65;;;9.30;99.90;;;;;;4911818;29;20029;-85
2022/10/09 07:23:46;;;;;;;4.53;4.13;;;9.30;99.90;;;;;;4910554;29;20032;-85
2022/10/09 07:26:15;;;;;;;4.22;3.25;;;9.30;99.90;;;;;;4910638;29;20033;-85
2022/10/09 07:28:42;;;;;;;3.58;3.20;;;9.40;99.90;;;;;;4894751;29;20025;-85
2022/10/09 07:31:08;;;;;;;5.35;3.85;;;9.40;99.90;;;;;;4911484;29;20029;-84
2022/10/09 07:33:34;;;;;;;3.58;3.25;;;9.40;99.90;;;;;;4911469;29;20029;-84
2022/10/09 07:36:02;;;;;;;4.25;3.85;;;9.50;99.90;;;;;;4910334;29;20040;-85
2022/10/09 07:38:28;;;;;;;5.18;4.47;;;9.50;99.90;;;;;;4916769;29;20438;-85
2022/10/09 07:40:58;;;;;;;8.25;3.03;;;9.50;99.90;;;;;;4909924;29;20100;-85
2022/10/09 07:43:24;;;;;;;9.15;4.10;;;9.50;99.90;;;;;;4926030;29;20029;-85
2022/10/09 07:45:50;;;;;;;4.22;3.90;;;9.60;99.90;;;;;;4924697;29;20430;-85
2022/10/09 07:48:15;;;;;;;6.47;4.03;;;9.60;99.90;;;;;;4917319;29;20084;-85
2022/10/09 07:50:41;;;;;;;4.45;3.15;;;9.60;99.90;;;;;;4921119;29;20024;-85
2022/10/09 07:53:07;;;;;;;7.88;3.40;;;9.70;99.90;;;;;;4928969;29;20055;-85
2022/10/09 07:55:34;;;;;;;6.68;4.00;;;9.60;99.90;;;;;;4927844;29;20035;-85
2022/10/09 07:58:00;;;;;;;4.40;3.67;;;9.70;99.90;;;;;;4928313;29;20060;-85
2022/10/09 08:00:26;;;;;;;9.80;2.97;;;9.70;99.90;;;;;;4927290;29;20035;-85
2022/10/09 08:02:52;;;;;;;3.92;3.22;;;9.60;99.90;;;;;;4901032;29;20087;-85
2022/10/09 08:05:18;;;;;;;5.80;3.90;;;9.70;99.90;;;;;;4912564;29;20064;-85
2022/10/09 08:07:44;;;;;;;3.55;3.22;;;9.70;99.90;;;;;;4927962;29;20062;-85
2022/10/09 08:10:12;;;;;;;7.15;4.63;;;9.80;99.90;;;;;;4928580;29;20024;-85
2022/10/09 08:12:38;;;;;;;6.72;3.30;;;9.90;99.90;;;;;;4929375;29;20533;-85
2022/10/09 08:15:05;;;;;;;3.05;2.85;;;9.80;99.90;;;;;;4928531;29;20052;-85
2022/10/09 08:17:31;;;;;;;4.32;2.85;;;9.90;99.90;;;;;;4927992;29;20458;-85
2022/10/09 08:19:57;;;;;;;4.05;3.65;;;9.90;99.90;;;;;;4921146;29;20040;-85
2022/10/09 08:22:23;;;;;;;7.18;3.67;;;9.90;99.90;;;;;;4922032;29;20036;-86
2022/10/09 08:24:48;;;;;;;10.82;3.00;;;10.00;99.90;;;;;;4907544;29;20028;-85
2022/10/09 08:27:14;;;;;;;3.35;2.80;;;9.90;99.90;;;;;;4922834;29;20122;-85
2022/10/09 08:29:40;;;;;;;6.22;3.70;;;10.00;99.90;;;;;;4924985;29;20036;-86
2022/10/09 08:32:06;;;;;;;5.07;2.67;;;10.00;99.90;;;;;;4897317;29;20025;-85
2022/10/09 08:34:32;;;;;;;6.55;3.30;;;10.10;99.90;;;;;;4931074;29;20016;-86
2022/10/09 08:36:57;;;;;;;5.80;2.95;;;10.10;99.90;;;;;;4927981;29;20504;-85
2022/10/09 08:39:23;;;;;;;3.63;3.33;;;10.20;99.90;;;;;;4929490;29;20028;-86
2022/10/09 08:41:52;;;;;;;3.20;2.47;;;10.30;99.90;;;;;;4892947;29;20032;-85
2022/10/09 08:44:47;;;;;;;7.53;3.75;;;10.30;99.90;;;;;;4909484;29;20033;-86
2022/10/09 08:51:19;;;;;;;7.30;2.88;;;10.40;99.90;;;;;;4923117;29;20035;-84
2022/10/09 08:54:18;;;;;;;3.30;2.95;;;10.60;99.90;;;;;;4913937;29;20036;-84
2022/10/09 08:57:16;;;;;;;4.30;2.97;;;10.60;99.90;;;;;;4930501;29;20035;-85
2022/10/09 08:59:43;;;;;;;7.47;3.60;;;10.70;99.90;;;;;;4913349;29;20028;-84
2022/10/09 09:02:18;;;;;;;6.90;2.85;;;10.80;99.90;;;;;;4928992;29;20107;-85
2022/10/09 09:05:05;;;;;;;3.33;2.45;;;10.90;99.90;;;;;;4942463;29;20044;-84
2022/10/09 09:07:40;;;;;;;2.63;2.05;;;10.90;99.90;;;;;;4933556;29;20044;-85
2022/10/09 09:10:32;;;;;;;5.70;3.33;;;11.00;99.90;;;;;;4925829;29;20032;-84
2022/10/09 09:13:40;;;;;;;4.40;3.38;;;11.00;99.90;;;;;;4930587;29;20470;-84
2022/10/09 09:16:17;;;;;;;3.30;3.00;;;11.20;99.90;;;;;;4932068;29;20036;-84
2022/10/09 09:18:48;;;;;;;2.17;2.00;;;11.20;99.90;;;;;;4948298;29;20056;-84
2022/10/09 09:21:28;;;;;;;3.97;1.70;;;11.20;99.90;;;;;;4925392;29;20056;-85
2022/10/09 09:23:56;;;;;;;10.10;3.92;;;11.40;99.90;;;;;;4933835;29;20024;-84
2022/10/09 09:26:22;;;;;;;8.90;3.15;;;11.50;99.90;;;;;;4932199;29;20028;-86
2022/10/09 09:28:53;;;;;;;2.20;1.85;;;11.60;99.90;;;;;;4916844;29;20048;-85
2022/10/09 09:31:34;;;;;;;5.28;2.83;;;11.60;99.90;;;;;;4931639;29;20129;-85
2022/10/09 09:34:09;;;;;;;3.83;1.98;;;11.70;99.90;;;;;;4932004;29;20038;-85
2022/10/09 09:36:57;;;;;;;4.85;1.80;;;11.80;99.90;;;;;;4915582;29;20033;-85
2022/10/09 09:39:26;;;;;;;3.45;2.65;;;11.90;99.90;;;;;;4913617;29;20041;-84
2022/10/09 09:41:59;;;;;;;3.08;2.47;;;12.00;99.90;;;;;;4940035;29;20048;-84
2022/10/09 09:44:27;;;;;;;2.75;2.10;;;12.10;99.90;;;;;;4898310;29;20047;-85
2022/10/09 09:46:53;;;;;;;5.25;2.33;;;12.20;99.90;;;;;;4926911;29;20020;-85
2022/10/09 09:49:26;;;;;;;7.93;3.30;;;12.20;99.90;;;;;;4927958;29;20051;-85
2022/10/09 09:51:53;;;;;;;7.53;4.10;;;12.30;99.90;;;;;;4913716;29;20043;-86
2022/10/09 09:54:25;;;;;;;1.77;1.67;;;12.30;99.90;;;;;;4943130;29;20016;-86
2022/10/09 09:56:55;;;;;;;8.18;2.17;;;12.40;99.90;;;;;;4932533;29;20114;-85
2022/10/09 09:59:41;;;;;;;3.60;1.95;;;12.50;99.90;;;;;;4914524;29;20040;-85
2022/10/09 10:02:11;;;;;;;8.23;2.22;;;12.60;99.90;;;;;;4932253;29;20088;-85
2022/10/09 10:04:37;;;;;;;4.68;2.83;;;12.70;99.90;;;;;;4931873;29;20524;-85
2022/10/09 10:07:04;;;;;;;5.57;1.27;;;12.80;99.90;;;;;;4932100;29;20044;-85
2022/10/09 10:09:30;;;;;;;3.95;2.60;;;12.90;99.90;;;;;;4914626;29;20032;-86
2022/10/09 10:11:59;;;;;;;3.97;2.10;;;12.90;99.90;;;;;;4932017;29;20040;-85
2022/10/09 10:14:26;;;;;;;7.63;2.42;;;13.00;99.90;;;;;;4913732;29;20367;-85
2022/10/09 10:16:55;;;;;;;5.68;2.22;;;13.10;99.90;;;;;;4910350;29;20512;-86
2022/10/09 10:19:27;;;;;;;2.35;2.03;;;13.20;99.90;;;;;;4914827;29;20363;-86
2022/10/09 10:22:05;;;;;;;5.28;2.30;;;13.20;99.90;;;;;;4915899;29;20035;-86
2022/10/09 10:24:37;;;;;;;3.95;2.15;;;13.30;99.90;;;;;;4943584;29;20040;-86
2022/10/09 10:27:36;;;;;;;4.10;2.33;;;13.30;99.90;;;;;;4912943;29;20470;-86
2022/10/09 10:30:05;;;;;;;2.90;1.88;;;13.40;99.90;;;;;;4911812;29;20052;-86
2022/10/09 10:32:40;;;;;;;6.40;1.90;;;13.50;99.90;;;;;;4928015;29;20512;-86
2022/10/09 10:35:28;;;;;;;14.68;3.53;;;13.60;99.90;;;;;;4911924;29;20031;-86
2022/10/09 10:38:15;;;;;;;2.88;2.35;;;13.70;99.90;;;;;;4917038;29;20052;-85
2022/10/09 10:40:49;;;;;;;8.82;3.80;;;13.80;99.90;;;;;;4930318;29;20035;-86
2022/10/09 10:43:25;;;;;;;6.63;2.65;;;13.90;99.90;;;;;;4931033;29;20099;-86
2022/10/09 10:46:03;;;;;;;7.65;1.67;;;14.00;99.90;;;;;;4927427;29;20111;-86
2022/10/09 10:48:41;;;;;;;3.53;2.33;;;14.00;99.90;;;;;;4907797;29;20379;-86
2022/10/09 10:51:07;;;;;;;6.20;1.75;;;14.00;99.90;;;;;;4943350;29;20367;-86
2022/10/09 10:53:40;;;;;;;5.28;2.35;;;14.10;99.90;;;;;;4928419;29;20025;-85
2022/10/09 10:56:15;;;;;;;5.05;1.90;;;14.00;99.90;;;;;;4916697;29;20471;-87
2022/10/09 10:58:55;;;;;;;6.47;1.92;;;14.10;99.90;;;;;;4911657;29;20394;-85
2022/10/09 11:01:36;;;;;;;6.32;3.53;;;14.10;99.90;;;;;;4904833;29;20119;-86
2022/10/09 11:04:14;;;;;;;3.85;3.03;;;14.20;99.90;;;;;;4922826;29;20057;-86
2022/10/09 11:06:52;;;;;;;5.95;3.00;;;14.20;99.90;;;;;;4926053;29;20104;-86
2022/10/09 11:09:36;;;;;;;6.38;2.10;;;14.30;99.90;;;;;;4911739;29;20452;-85
2022/10/09 11:12:27;;;;;;;6.28;1.45;;;14.40;99.90;;;;;;4927723;29;20099;-86
2022/10/09 11:14:59;;;;;;;5.30;2.55;;;14.40;99.90;;;;;;4913302;29;20029;-86
2022/10/09 11:17:44;;;;;;;7.18;2.08;;;14.40;99.90;;;;;;4916939;29;20040;-87
2022/10/09 11:20:29;;;;;;;4.88;1.95;;;14.30;99.90;;;;;;4929266;29;20036;-86
2022/10/09 11:23:17;;;;;;;3.30;1.50;;;14.30;99.90;;;;;;4913528;29;20036;-86
2022/10/09 11:26:25;;;;;;;3.15;1.95;;;14.40;99.90;;;;;;4913545;29;20121;-86
2022/10/09 11:29:04;;;;;;;5.10;1.95;;;14.50;99.90;;;;;;4912117;29;20035;-86
2022/10/09 11:31:48;;;;;;;6.28;1.95;;;14.70;99.90;;;;;;4912029;29;20031;-86
2022/10/09 11:34:22;;;;;;;2.90;2.50;;;14.90;99.90;;;;;;4911485;29;20100;-86
2022/10/09 11:36:47;;;;;;;4.88;2.08;;;15.00;99.90;;;;;;4894831;29;20375;-87
2022/10/09 11:39:19;;;;;;;3.42;1.95;;;15.10;99.90;;;;;;4910726;29;20020;-87
2022/10/09 11:41:47;;;;;;;1.65;1.55;;;15.20;99.90;;;;;;4929214;29;20042;-86
2022/10/09 11:44:38;;;;;;;6.18;2.80;;;15.30;99.90;;;;;;4913109;29;20032;-86
2022/10/09 11:47:16;;;;;;;6.63;2.00;;;15.30;99.90;;;;;;4912957;29;20095;-86
2022/10/09 11:49:41;;;;;;;3.15;1.77;;;15.40;99.90;;;;;;4928954;29;20020;-86
2022/10/09 11:52:19;;;;;;;2.85;2.10;;;15.40;99.90;;;;;;4909960;29;20493;-86
2022/10/09 11:54:45;;;;;;;4.38;2.03;;;15.50;99.90;;;;;;4909770;29;20028;-88
2022/10/09 11:57:11;;;;;;;2.88;1.73;;;15.50;99.90;;;;;;4910617;29;20103;-87
2022/10/09 11:59:41;;;;;;;4.90;1.77;;;15.60;99.90;;;;;;4911219;29;20033;-87
2022/10/09 12:02:24;;;;;;;2.03;1.23;;;15.60;99.90;;;;;;4902699;29;20032;-87
2022/10/09 12:04:51;;;;;;;3.90;1.40;;;15.70;99.90;;;;;;4930208;29;20156;-87
2022/10/09 12:07:35;;;;;;;6.00;1.98;;;15.80;99.90;;;;;;4896263;29;20045;-87
2022/10/09 12:10:07;;;;;;;5.30;2.00;;;15.80;99.90;;;;;;4909803;29;20069;-87
2022/10/09 12:12:36;;;;;;;3.80;2.45;;;15.80;99.90;;;;;;4909933;29;20032;-87
2022/10/09 12:15:36;;;;;;;7.65;2.53;;;15.90;99.90;;;;;;4941606;29;20371;-87
2022/10/09 12:18:39;;;;;;;5.05;1.88;;;15.90;99.90;;;;;;4909782;29;20036;-87
2022/10/09 12:21:15;;;;;;;2.92;2.08;;;16.00;99.90;;;;;;4909990;29;20518;-86
2022/10/09 12:23:41;;;;;;;3.72;1.33;;;16.00;99.90;;;;;;4918286;29;20035;-87
2022/10/09 12:26:11;;;;;;;3.47;1.15;;;16.10;99.90;;;;;;4928209;29;20037;-87
2022/10/09 12:28:42;;;;;;;2.65;1.60;;;16.10;99.90;;;;;;4928624;29;20158;-86
2022/10/09 12:31:22;;;;;;;3.33;2.15;;;16.20;99.90;;;;;;4929751;29;20488;-87
2022/10/09 12:33:51;;;;;;;;;;;16.20;99.90;;;;;;4913154;29;20501;-87
2022/10/09 12:36:26;;;;;;;7.65;3.83;;;16.20;99.90;;;;;;4929771;29;19907;-86
2022/10/09 12:38:52;;;;;;;4.93;1.98;;;16.20;99.90;;;;;;4928465;29;20032;-87
2022/10/09 12:41:23;;;;;;;8.00;1.67;;;16.20;99.90;;;;;;4911623;29;20036;-87
2022/10/09 12:43:53;;;;;;;8.50;2.65;;;16.30;99.90;;;;;;4910707;29;20032;-87
2022/10/09 12:46:45;;;;;;;6.65;2.25;;;16.40;99.90;;;;;;4910522;29;20044;-87
2022/10/09 12:49:19;;;;;;;2.40;1.60;;;16.50;99.90;;;;;;4892699;29;20112;-87
2022/10/09 12:51:56;;;;;;;2.85;1.77;;;16.60;99.90;;;;;;4910405;29;20032;-87
2022/10/09 12:54:24;;;;;;;4.60;2.38;;;16.60;99.90;;;;;;4909559;29;20104;-87
2022/10/09 12:56:52;;;;;;;1.67;1.10;;;16.60;99.90;;;;;;4909254;29;20141;-89
2022/10/09 12:59:19;;;;;;;1.55;0.90;;;16.60;99.90;;;;;;4910860;29;20040;-87
2022/10/09 13:01:46;;;;;;;6.65;2.03;;;16.60;99.90;;;;;;4912215;29;20489;-87
2022/10/09 13:04:30;;;;;;;3.75;1.50;;;16.70;99.90;;;;;;4911266;29;20051;-88
2022/10/09 13:06:58;;;;;;;3.58;2.35;;;16.70;99.90;;;;;;4911845;29;20040;-88
2022/10/09 13:09:31;;;;;;;5.35;1.73;;;16.80;99.90;;;;;;4911498;29;20036;-86
2022/10/09 13:12:07;;;;;;;6.30;1.83;;;16.90;99.90;;;;;;4911844;29;20036;-87
2022/10/09 13:14:35;;;;;;;2.70;1.45;;;16.90;99.90;;;;;;4912714;29;20052;-87
2022/10/09 13:17:01;;;;;;;1.73;1.02;;;16.90;99.90;;;;;;4914126;29;20029;-87